createdAt,value
2017-05-25T00:01:53.426Z,81.00
2017-05-25T00:04:21.116Z,80.40
2017-05-25T00:06:48.772Z,79.20
2017-05-25T00:09:16.834Z,78.60
2017-05-25T00:11:44.494Z,77.40
2017-05-25T00:14:12.924Z,76.30
2017-05-25T00:16:40.611Z,76.30
2017-05-25T00:19:09.024Z,78.30
2017-05-25T00:21:37.016Z,78.10
2017-05-25T00:24:04.660Z,78.50
2017-05-25T00:26:32.320Z,76.50
2017-05-25T00:29:00.001Z,77.30
2017-05-25T00:31:27.661Z,75.20
2017-05-25T00:33:56.371Z,77.10
2017-05-25T00:36:24.021Z,77.10
2017-05-25T00:38:51.662Z,77.60
2017-05-25T00:41:19.341Z,76.70
2017-05-25T00:43:46.993Z,77.00
2017-05-25T00:46:15.012Z,77.00
2017-05-25T00:48:42.664Z,78.40
2017-05-25T00:51:10.321Z,77.70
2017-05-25T00:53:38.001Z,77.20
2017-05-25T00:56:05.653Z,76.40
2017-05-25T00:58:34.504Z,77.20
2017-05-25T01:01:02.158Z,77.20
2017-05-25T01:03:29.819Z,76.80
2017-05-25T01:05:57.488Z,75.00
2017-05-25T01:08:25.135Z,77.70
2017-05-25T01:10:53.118Z,75.40
2017-05-25T01:13:21.541Z,76.70
2017-05-25T01:15:49.181Z,76.60
2017-05-25T01:18:16.862Z,77.40
2017-05-25T01:20:44.515Z,75.50
2017-05-25T01:23:12.474Z,75.40
2017-05-25T01:25:40.126Z,76.80
2017-05-25T01:28:08.536Z,77.40
2017-05-25T01:30:37.009Z,78.00
2017-05-25T01:33:04.662Z,77.90
2017-05-25T01:35:33.366Z,79.50
2017-05-25T01:38:01.005Z,79.50
2017-05-25T01:40:28.641Z,79.50
2017-05-25T01:42:56.311Z,79.20
2017-05-25T01:45:24.721Z,79.00
2017-05-25T01:47:52.655Z,79.00
2017-05-25T01:50:20.310Z,80.10
2017-05-25T01:52:48.735Z,79.50
2017-05-25T01:55:17.224Z,78.80
2017-05-25T01:57:44.863Z,78.70
2017-05-25T02:00:12.795Z,78.20
2017-05-25T02:02:40.440Z,77.70
2017-05-25T02:05:08.093Z,78.20
2017-05-25T02:07:35.753Z,78.70
2017-05-25T02:10:03.411Z,78.10
2017-05-25T02:12:31.082Z,76.70
2017-05-25T02:14:58.764Z,77.00
2017-05-25T02:17:26.423Z,77.70
2017-05-25T02:19:54.065Z,74.90
2017-05-25T02:22:22.015Z,74.00
2017-05-25T02:24:49.763Z,73.30
2017-05-25T02:27:17.410Z,73.70
2017-05-25T02:29:45.860Z,73.30
2017-05-25T02:32:13.572Z,73.20
2017-05-25T02:34:41.591Z,74.50
2017-05-25T02:37:09.253Z,72.70
2017-05-25T02:39:37.675Z,72.60
2017-05-25T02:42:05.357Z,72.60
2017-05-25T02:44:33.000Z,73.50
2017-05-25T02:47:01.736Z,72.00
2017-05-25T02:49:29.438Z,72.00
2017-05-25T02:51:57.077Z,71.60
2017-05-25T02:54:24.763Z,72.20
2017-05-25T02:56:52.417Z,73.40
2017-05-25T02:59:21.238Z,74.70
2017-05-25T03:01:48.890Z,74.50
2017-05-25T03:04:17.301Z,73.50
2017-05-25T03:06:44.974Z,73.30
2017-05-25T03:09:12.635Z,74.80
2017-05-25T03:11:40.592Z,76.20
2017-05-25T03:14:08.998Z,73.80
2017-05-25T03:16:37.424Z,75.40
2017-05-25T03:19:05.104Z,75.30
2017-05-25T03:21:32.765Z,75.90
2017-05-25T03:24:00.764Z,75.90
2017-05-25T03:26:28.405Z,75.30
2017-05-25T03:28:56.078Z,76.10
2017-05-25T03:31:24.521Z,75.10
2017-05-25T03:33:52.941Z,75.70
2017-05-25T03:36:20.945Z,75.70
2017-05-25T03:38:49.361Z,77.10
2017-05-25T03:41:17.026Z,77.10
2017-05-25T03:43:46.731Z,78.90
2017-05-25T03:46:14.394Z,78.80
2017-05-25T03:48:43.210Z,77.10
2017-05-25T03:51:11.121Z,77.10
2017-05-25T03:53:38.822Z,76.60
2017-05-25T03:56:07.265Z,77.10
2017-05-25T03:58:36.245Z,77.30
2017-05-25T04:01:04.464Z,77.10
2017-05-25T04:03:33.314Z,74.90
2017-05-25T04:06:02.397Z,72.20
2017-05-25T04:08:30.850Z,73.70
2017-05-25T04:10:58.512Z,73.70
2017-05-25T04:13:26.524Z,73.80
2017-05-25T04:15:54.169Z,74.10
2017-05-25T04:18:26.562Z,76.10
2017-05-25T04:20:56.102Z,76.80
2017-05-25T04:23:23.754Z,76.40
2017-05-25T04:25:51.798Z,75.90
2017-05-25T04:28:21.043Z,76.80
2017-05-25T04:30:49.257Z,79.70
2017-05-25T04:33:17.019Z,78.50
2017-05-25T04:35:45.441Z,74.80
2017-05-25T04:38:13.474Z,74.60
2017-05-25T04:40:41.439Z,72.00
2017-05-25T04:43:10.949Z,70.30
2017-05-25T04:45:38.768Z,70.10
2017-05-25T04:48:06.418Z,69.40
2017-05-25T04:50:34.376Z,68.90
2017-05-25T04:53:02.033Z,70.30
2017-05-25T04:55:29.877Z,69.20
2017-05-25T04:57:57.554Z,68.00
2017-05-25T05:00:27.376Z,69.20
2017-05-25T05:02:57.345Z,66.80
2017-05-25T05:05:25.912Z,66.80
2017-05-25T05:07:53.608Z,66.10
2017-05-25T05:10:22.044Z,67.00
2017-05-25T05:12:50.157Z,66.90
2017-05-25T05:15:18.109Z,67.10
2017-05-25T05:17:45.973Z,66.60
2017-05-25T05:20:13.684Z,66.30
2017-05-25T05:22:41.374Z,63.40
2017-05-25T05:25:10.271Z,65.60
2017-05-25T05:27:38.753Z,62.20
2017-05-25T05:30:06.405Z,61.70
2017-05-25T05:32:34.063Z,60.60
2017-05-25T05:35:01.737Z,61.60
2017-05-25T05:37:29.387Z,62.00
2017-05-25T05:39:58.110Z,62.10
2017-05-25T05:42:25.765Z,62.10
2017-05-25T05:44:53.460Z,64.10
2017-05-25T05:47:21.132Z,64.10
2017-05-25T05:49:49.550Z,64.30
2017-05-25T05:52:17.620Z,64.20
2017-05-25T05:54:45.273Z,62.70
2017-05-25T05:57:12.930Z,62.10
2017-05-25T05:59:41.381Z,52.70
2017-05-25T06:02:09.785Z,50.00
2017-05-25T06:04:37.737Z,50.00
2017-05-25T06:07:06.157Z,48.60
2017-05-25T06:09:34.629Z,45.90
2017-05-25T06:12:02.309Z,45.80
2017-05-25T06:14:29.938Z,43.80
2017-05-25T06:16:58.624Z,41.00
2017-05-25T06:19:27.023Z,40.60
2017-05-25T06:21:54.738Z,40.60
2017-05-25T06:24:22.406Z,38.30
2017-05-25T06:26:50.033Z,37.70
2017-05-25T06:29:18.149Z,37.00
2017-05-25T06:31:45.788Z,36.50
2017-05-25T06:34:13.421Z,36.90
2017-05-25T06:36:41.840Z,33.10
2017-05-25T06:39:10.238Z,32.50
2017-05-25T06:41:38.222Z,32.50
2017-05-25T06:44:05.861Z,31.60
2017-05-25T06:46:33.534Z,33.80
2017-05-25T06:49:01.168Z,36.10
2017-05-25T06:51:28.788Z,37.30
2017-05-25T06:53:56.736Z,37.30
2017-05-25T06:56:24.367Z,38.20
2017-05-25T06:58:52.018Z,39.40
2017-05-25T07:01:19.786Z,41.90
2017-05-25T07:03:47.432Z,39.90
2017-05-25T07:06:15.600Z,39.50
2017-05-25T07:08:43.222Z,40.40
2017-05-25T07:11:10.860Z,38.50
2017-05-25T07:13:38.553Z,35.50
2017-05-25T07:16:06.176Z,33.70
2017-05-25T07:18:34.849Z,33.50
2017-05-25T07:21:02.485Z,33.50
2017-05-25T07:23:30.101Z,36.40
2017-05-25T07:25:57.841Z,39.30
2017-05-25T07:28:25.468Z,39.60
2017-05-25T07:30:53.403Z,40.20
2017-05-25T07:33:21.031Z,37.50
2017-05-25T07:35:48.887Z,36.60
2017-05-25T07:38:16.586Z,36.20
2017-05-25T07:40:44.243Z,38.90
2017-05-25T07:43:12.253Z,39.10
2017-05-25T07:45:40.057Z,37.40
2017-05-25T07:48:08.492Z,34.00
2017-05-25T07:50:36.154Z,33.90
2017-05-25T07:53:04.554Z,32.50
2017-05-25T07:55:32.533Z,32.50
2017-05-25T07:58:00.153Z,32.20
2017-05-25T08:00:27.836Z,34.10
2017-05-25T08:02:55.489Z,36.90
2017-05-25T08:05:23.148Z,39.00
2017-05-25T08:07:51.096Z,41.20
2017-05-25T08:10:18.754Z,43.60
2017-05-25T08:12:46.414Z,45.90
2017-05-25T08:15:14.100Z,45.40
2017-05-25T08:17:41.753Z,46.20
2017-05-25T08:20:09.739Z,44.00
2017-05-25T08:22:37.395Z,41.10
2017-05-25T08:25:05.054Z,40.80
2017-05-25T08:27:32.733Z,40.90
2017-05-25T08:30:00.482Z,40.50
2017-05-25T08:32:28.533Z,43.10
2017-05-25T08:34:56.200Z,44.40
2017-05-25T08:37:23.873Z,45.10
2017-05-25T08:39:51.552Z,43.20
2017-05-25T08:42:19.259Z,43.10
2017-05-25T08:44:47.322Z,40.50
2017-05-25T08:47:15.096Z,38.30
2017-05-25T08:49:42.755Z,40.10
2017-05-25T08:52:10.482Z,41.40
2017-05-25T08:54:38.173Z,41.60
2017-05-25T08:57:06.867Z,38.00
2017-05-25T08:59:35.607Z,34.90
2017-05-25T09:02:04.649Z,34.80
2017-05-25T09:04:32.376Z,31.50
2017-05-25T09:07:00.006Z,31.80
2017-05-25T09:09:28.005Z,32.00
2017-05-25T09:11:55.630Z,33.00
2017-05-25T09:14:23.265Z,34.50
2017-05-25T09:16:50.938Z,36.70
2017-05-25T09:19:18.580Z,38.60
2017-05-25T09:21:49.057Z,39.60
2017-05-25T09:24:16.837Z,39.80
2017-05-25T09:26:44.460Z,39.00
2017-05-25T09:29:12.170Z,38.70
2017-05-25T09:31:45.922Z,37.20
2017-05-25T09:34:14.049Z,37.10
2017-05-25T09:36:42.445Z,35.40
2017-05-25T09:39:10.075Z,35.30
2017-05-25T09:41:37.734Z,37.90
2017-05-25T09:44:05.356Z,36.70
2017-05-25T09:46:37.805Z,34.30
2017-05-25T09:49:11.045Z,29.80
2017-05-25T09:51:41.057Z,29.80
2017-05-25T09:54:09.006Z,28.10
2017-05-25T09:56:36.626Z,28.60
2017-05-25T09:59:06.130Z,29.20
2017-05-25T10:01:37.258Z,29.10
2017-05-25T10:04:08.098Z,28.30
2017-05-25T10:06:36.619Z,28.10
2017-05-25T10:09:05.555Z,28.10
2017-05-25T10:11:34.756Z,26.00
2017-05-25T10:14:03.891Z,23.80
2017-05-25T10:16:31.905Z,24.90
2017-05-25T10:18:59.546Z,25.70
2017-05-25T10:21:27.217Z,24.70
2017-05-25T10:23:54.877Z,24.50
2017-05-25T10:26:22.511Z,25.30
2017-05-25T10:28:51.262Z,25.70
2017-05-25T10:31:18.951Z,25.70
2017-05-25T10:33:46.581Z,27.10
2017-05-25T10:36:15.000Z,31.10
2017-05-25T10:38:42.625Z,31.00
2017-05-25T10:41:10.755Z,32.20
2017-05-25T10:43:39.186Z,32.00
2017-05-25T10:46:06.864Z,32.00
2017-05-25T10:48:35.276Z,31.20
2017-05-25T10:51:02.909Z,31.20
2017-05-25T10:53:30.565Z,32.10
2017-05-25T10:55:58.980Z,32.70
2017-05-25T10:58:27.017Z,32.70
2017-05-25T11:00:54.674Z,34.50
2017-05-25T11:03:22.347Z,34.70
2017-05-25T11:05:50.044Z,33.90
2017-05-25T11:08:17.764Z,34.70
2017-05-25T11:10:46.149Z,34.60
2017-05-25T11:13:13.804Z,35.50
2017-05-25T11:15:42.229Z,34.40
2017-05-25T11:18:09.904Z,35.00
2017-05-25T11:20:37.560Z,34.90
2017-05-25T11:23:06.020Z,36.60
2017-05-25T11:25:33.669Z,36.40
2017-05-25T11:28:01.359Z,33.80
2017-05-25T11:30:29.383Z,32.10
2017-05-25T11:32:57.032Z,34.20
2017-05-25T11:35:24.705Z,35.10
2017-05-25T11:37:53.214Z,33.50
2017-05-25T11:40:20.836Z,33.50
2017-05-25T11:42:49.574Z,32.50
2017-05-25T11:45:17.218Z,32.40
2017-05-25T11:47:44.843Z,32.80
2017-05-25T11:50:13.261Z,33.60
2017-05-25T11:52:41.656Z,33.40
2017-05-25T11:55:10.461Z,34.00
2017-05-25T11:57:38.124Z,34.00
2017-05-25T12:00:05.742Z,34.60
2017-05-25T12:02:33.387Z,34.60
2017-05-25T12:05:01.070Z,35.50
2017-05-25T12:07:30.036Z,35.60
2017-05-25T12:09:58.456Z,35.50
2017-05-25T12:12:26.206Z,35.50
2017-05-25T12:14:53.925Z,35.40
2017-05-25T12:17:22.425Z,36.50
2017-05-25T12:19:50.515Z,36.50
2017-05-25T12:22:18.188Z,37.10
2017-05-25T12:24:45.846Z,36.90
2017-05-25T12:27:14.290Z,37.50
2017-05-25T12:29:42.717Z,38.20
2017-05-25T12:32:10.686Z,38.30
2017-05-25T12:34:38.336Z,36.60
2017-05-25T12:37:06.125Z,37.60
2017-05-25T12:39:34.576Z,37.70
2017-05-25T12:42:02.234Z,37.70
2017-05-25T12:44:30.251Z,36.10
2017-05-25T12:46:57.932Z,38.00
2017-05-25T12:49:25.604Z,37.20
2017-05-25T12:51:53.290Z,36.70
2017-05-25T12:54:20.953Z,36.70
2017-05-25T12:56:49.050Z,36.90
2017-05-25T12:59:16.764Z,36.80
2017-05-25T13:01:44.415Z,37.70
2017-05-25T13:04:12.122Z,36.70
2017-05-25T13:06:39.776Z,35.50
2017-05-25T13:09:08.563Z,35.00
2017-05-25T13:11:36.184Z,34.90
2017-05-25T13:14:04.608Z,35.20
2017-05-25T13:16:32.369Z,35.20
2017-05-25T13:19:00.033Z,35.60
2017-05-25T13:21:28.473Z,36.00
2017-05-25T13:23:56.865Z,35.70
2017-05-25T13:26:25.677Z,36.20
2017-05-25T13:28:54.096Z,36.90
2017-05-25T13:31:21.722Z,37.20
2017-05-25T13:33:49.429Z,34.80
2017-05-25T13:36:17.108Z,36.30
2017-05-25T13:38:44.778Z,35.90
2017-05-25T13:41:12.430Z,36.90
2017-05-25T13:43:40.122Z,38.20
2017-05-25T13:46:07.762Z,38.60
2017-05-25T13:48:35.702Z,37.00
2017-05-25T13:51:03.353Z,36.90
2017-05-25T13:53:31.022Z,37.10
2017-05-25T13:55:58.698Z,37.10
2017-05-25T13:58:27.118Z,36.90
2017-05-25T14:00:55.899Z,36.40
2017-05-25T14:03:23.543Z,36.30
2017-05-25T14:05:51.198Z,36.60
2017-05-25T14:08:18.883Z,36.20
2017-05-25T14:10:46.568Z,37.90
2017-05-25T14:13:14.529Z,36.60
2017-05-25T14:15:43.038Z,35.20
2017-05-25T14:18:11.526Z,34.90
2017-05-25T14:20:39.204Z,34.80
2017-05-25T14:23:07.625Z,35.40
2017-05-25T14:25:36.349Z,35.40
2017-05-25T14:28:03.999Z,35.50
2017-05-25T14:30:31.655Z,37.60
2017-05-25T14:33:00.100Z,37.20
2017-05-25T14:35:27.762Z,37.20
2017-05-25T14:37:56.529Z,38.00
2017-05-25T14:40:24.189Z,37.90
2017-05-25T14:42:52.955Z,38.60
2017-05-25T14:45:20.683Z,38.60
2017-05-25T14:47:48.345Z,39.30
2017-05-25T14:50:16.301Z,39.00
2017-05-25T14:52:43.971Z,39.50
2017-05-25T14:55:11.624Z,39.00
2017-05-25T14:57:39.358Z,39.90
2017-05-25T15:00:07.013Z,39.90
2017-05-25T15:02:35.041Z,40.00
2017-05-25T15:05:02.706Z,39.20
2017-05-25T15:07:30.354Z,37.40
2017-05-25T15:09:58.258Z,38.00
2017-05-25T15:12:26.179Z,37.20
2017-05-25T15:14:54.215Z,36.80
2017-05-25T15:17:22.630Z,38.50
2017-05-25T15:19:50.298Z,38.50
2017-05-25T15:22:18.037Z,36.70
2017-05-25T15:24:46.465Z,39.40
2017-05-25T15:27:14.408Z,38.80
2017-05-25T15:29:42.069Z,38.20
2017-05-25T15:32:10.504Z,38.40
2017-05-25T15:34:38.197Z,38.40
2017-05-25T15:37:06.624Z,39.50
2017-05-25T15:39:34.657Z,39.40
2017-05-25T15:42:03.069Z,38.40
2017-05-25T15:44:30.728Z,38.50
2017-05-25T15:46:58.398Z,37.90
2017-05-25T15:49:26.063Z,38.40
2017-05-25T15:51:54.034Z,38.60
2017-05-25T15:54:22.449Z,39.70
2017-05-25T15:56:50.109Z,39.80
2017-05-25T15:59:17.793Z,38.80
2017-05-25T16:01:45.441Z,38.90
2017-05-25T16:04:13.515Z,40.20
2017-05-25T16:06:41.992Z,39.40
2017-05-25T16:09:09.658Z,39.40
2017-05-25T16:11:37.333Z,39.60
2017-05-25T16:14:04.984Z,39.10
2017-05-25T16:16:33.050Z,39.40
2017-05-25T16:19:00.776Z,39.40
2017-05-25T16:21:28.433Z,41.40
2017-05-25T16:23:56.161Z,40.80
2017-05-25T16:26:23.838Z,41.40
2017-05-25T16:28:51.805Z,40.30
2017-05-25T16:31:19.478Z,40.40
2017-05-25T16:33:47.157Z,40.20
2017-05-25T16:36:14.841Z,41.10
2017-05-25T16:38:42.484Z,41.30
2017-05-25T16:41:10.651Z,40.80
2017-05-25T16:43:38.318Z,41.00
2017-05-25T16:46:07.453Z,39.90
2017-05-25T16:48:35.125Z,39.80
2017-05-25T16:51:02.857Z,40.40
2017-05-25T16:53:30.980Z,40.80
2017-05-25T16:55:58.624Z,42.80
2017-05-25T16:58:26.281Z,41.50
2017-05-25T17:00:54.015Z,41.60
2017-05-25T17:03:22.557Z,41.60
2017-05-25T17:05:50.646Z,40.80
2017-05-25T17:08:18.292Z,40.70
2017-05-25T17:10:46.191Z,41.60
2017-05-25T17:13:13.937Z,40.60
2017-05-25T17:15:41.601Z,41.90
2017-05-25T17:18:09.785Z,43.10
2017-05-25T17:20:37.470Z,44.10
2017-05-25T17:23:05.886Z,45.30
2017-05-25T17:25:33.570Z,45.20
2017-05-25T17:28:01.215Z,45.00
2017-05-25T17:30:29.911Z,47.00
2017-05-25T17:32:57.576Z,47.00
2017-05-25T17:35:25.247Z,47.20
2017-05-25T17:37:52.942Z,47.60
2017-05-25T17:40:20.602Z,48.40
2017-05-25T17:42:48.608Z,49.30
2017-05-25T17:45:17.043Z,48.40
2017-05-25T17:47:45.456Z,48.60
2017-05-25T17:50:13.145Z,48.70
2017-05-25T17:52:41.565Z,49.10
2017-05-25T17:55:09.546Z,49.10
2017-05-25T17:57:37.203Z,48.50
2017-05-25T18:00:04.860Z,49.00
2017-05-25T18:02:32.566Z,49.10
2017-05-25T18:05:01.033Z,49.50
2017-05-25T18:07:29.123Z,50.20
2017-05-25T18:09:57.013Z,50.00
2017-05-25T18:12:25.545Z,50.30
2017-05-25T18:14:53.270Z,50.30
2017-05-25T18:17:20.930Z,50.70
2017-05-25T18:19:49.357Z,50.90
2017-05-25T18:22:17.288Z,50.90
2017-05-25T18:24:44.967Z,51.70
2017-05-25T18:27:12.639Z,52.30
2017-05-25T18:29:41.346Z,51.90
2017-05-25T18:32:09.052Z,51.90
2017-05-25T18:34:36.701Z,51.50
2017-05-25T18:37:04.673Z,51.00
2017-05-25T18:39:32.330Z,51.70
2017-05-25T18:41:59.988Z,51.70
2017-05-25T18:44:27.752Z,52.00
2017-05-25T18:46:55.396Z,52.20
2017-05-25T18:49:24.134Z,53.10
2017-05-25T18:51:52.544Z,52.30
2017-05-25T18:54:20.244Z,52.80
2017-05-25T18:56:48.018Z,53.50
2017-05-25T18:59:15.676Z,54.60
2017-05-25T19:01:43.679Z,53.80
2017-05-25T19:04:11.347Z,54.00
2017-05-25T19:06:39.820Z,56.20
2017-05-25T19:09:07.510Z,55.60
2017-05-25T19:11:35.175Z,56.70
2017-05-25T19:14:03.139Z,57.40
2017-05-25T19:16:30.826Z,58.10
2017-05-25T19:18:58.502Z,58.00
2017-05-25T19:21:26.204Z,58.60
2017-05-25T19:23:54.665Z,59.80
2017-05-25T19:26:22.381Z,59.80
2017-05-25T19:28:50.052Z,60.10
2017-05-25T19:31:17.717Z,60.30
2017-05-25T19:33:45.413Z,60.60
2017-05-25T19:36:13.530Z,61.70
2017-05-25T19:38:41.257Z,62.50
2017-05-25T19:41:09.701Z,63.20
2017-05-25T19:43:37.361Z,63.20
2017-05-25T19:46:05.108Z,63.80
2017-05-25T19:48:32.823Z,64.60
2017-05-25T19:51:00.550Z,65.30
2017-05-25T19:53:28.317Z,65.70
2017-05-25T19:55:56.769Z,66.20
2017-05-25T19:58:24.464Z,66.10
2017-05-25T20:00:52.950Z,67.60
2017-05-25T20:03:20.988Z,67.60
2017-05-25T20:05:49.418Z,68.00
2017-05-25T20:08:17.069Z,67.90
2017-05-25T20:10:45.508Z,69.00
2017-05-25T20:13:13.919Z,69.80
2017-05-25T20:15:41.899Z,69.80
2017-05-25T20:18:09.541Z,70.30
2017-05-25T20:20:37.185Z,70.50
2017-05-25T20:23:04.861Z,71.30
2017-05-25T20:25:32.525Z,71.60
2017-05-25T20:28:00.517Z,72.20
2017-05-25T20:30:28.156Z,72.60
2017-05-25T20:32:55.823Z,73.90
2017-05-25T20:35:23.555Z,75.00
2017-05-25T20:37:51.213Z,75.50
2017-05-25T20:40:20.029Z,76.00
2017-05-25T20:42:47.704Z,76.40
2017-05-25T20:45:15.392Z,76.90
2017-05-25T20:47:43.857Z,77.50
2017-05-25T20:50:11.582Z,77.50
2017-05-25T20:52:39.551Z,77.80
2017-05-25T20:55:07.218Z,78.10
2017-05-25T20:57:34.881Z,78.20
2017-05-25T21:00:03.332Z,79.50
2017-05-25T21:02:30.984Z,79.50
2017-05-25T21:04:58.708Z,79.80
2017-05-25T21:07:26.357Z,80.00
2017-05-25T21:09:54.318Z,80.00
2017-05-25T21:12:22.006Z,80.90
2017-05-25T21:14:49.661Z,81.10
2017-05-25T21:17:18.108Z,81.50
2017-05-25T21:19:46.529Z,81.70
2017-05-25T21:22:14.501Z,81.70
2017-05-25T21:24:42.155Z,81.60
2017-05-25T21:27:09.820Z,82.00
2017-05-25T21:29:37.563Z,81.90
2017-05-25T21:32:05.217Z,82.70
2017-05-25T21:34:33.328Z,83.40
2017-05-25T21:37:01.018Z,83.60
2017-05-25T21:39:28.689Z,83.90
2017-05-25T21:41:56.373Z,84.70
2017-05-25T21:44:24.801Z,84.10
2017-05-25T21:46:52.802Z,84.00
2017-05-25T21:49:20.470Z,84.40
2017-05-25T21:51:48.127Z,84.40
2017-05-25T21:54:15.804Z,84.20
2017-05-25T21:56:44.221Z,84.90
2017-05-25T21:59:12.273Z,84.90
2017-05-25T22:01:39.925Z,85.20
2017-05-25T22:04:08.363Z,85.40
2017-05-25T22:06:36.056Z,85.40
2017-05-25T22:09:03.723Z,85.20
2017-05-25T22:11:31.716Z,85.30
2017-05-25T22:13:59.383Z,85.10
2017-05-25T22:16:27.033Z,85.40
2017-05-25T22:18:54.796Z,85.30
2017-05-25T22:21:23.211Z,85.80
2017-05-25T22:23:52.005Z,85.60
2017-05-25T22:26:19.778Z,85.60
2017-05-25T22:28:47.434Z,86.00
2017-05-25T22:31:15.882Z,86.60
2017-05-25T22:33:44.304Z,86.80
2017-05-25T22:36:12.292Z,86.70
2017-05-25T22:38:39.952Z,86.60
2017-05-25T22:41:08.368Z,86.20
2017-05-25T22:43:36.059Z,86.10
2017-05-25T22:46:04.472Z,86.60
2017-05-25T22:48:32.456Z,86.50
2017-05-25T22:51:00.106Z,87.10
2017-05-25T22:53:28.541Z,86.50
2017-05-25T22:55:56.228Z,86.50
2017-05-25T22:58:23.877Z,86.80
2017-05-25T23:00:51.920Z,87.20
2017-05-25T23:03:19.572Z,87.60
2017-05-25T23:05:47.229Z,87.70
2017-05-25T23:08:14.896Z,88.10
2017-05-25T23:10:43.313Z,88.50
2017-05-25T23:13:11.277Z,88.30
2017-05-25T23:15:38.941Z,88.70
2017-05-25T23:18:06.602Z,88.70
2017-05-25T23:20:34.350Z,88.80
2017-05-25T23:23:01.998Z,88.50
2017-05-25T23:25:30.786Z,88.30
2017-05-25T23:27:58.437Z,88.30
2017-05-25T23:30:26.119Z,88.50
2017-05-25T23:32:53.821Z,88.60
2017-05-25T23:35:22.245Z,88.90
2017-05-25T23:37:51.017Z,88.90
2017-05-25T23:40:18.660Z,88.70
2017-05-25T23:42:46.322Z,88.80
2017-05-25T23:45:14.001Z,88.60
2017-05-25T23:47:41.659Z,88.90
2017-05-25T23:50:09.664Z,89.00
2017-05-25T23:52:37.309Z,89.20
2017-05-25T23:55:04.957Z,89.30
2017-05-25T23:57:33.402Z,89.20
